Time;durP1;ratioP1;P1;durP2;ratioP2;P2;SDS_P1;SDS_P2;PMS_P1;PMS_P2;Temp;Humidity;BMP_temperature;BMP_pressure;BME280_temperature;BME280_humidity;BME280_pressure;Samples;Min_cycle;Max_cycle;Signal;HPM_P1;HPM_P2
2021/06/21 00:02:26;;;;;;;25.45;21.52;;;18.80;76.40;;;;;;4439665;32;20478;-78
2021/06/21 00:04:55;;;;;;;31.20;23.45;;;18.80;76.10;;;;;;4440249;32;20041;-79
2021/06/21 00:07:22;;;;;;;30.67;23.23;;;18.70;76.20;;;;;;4439903;32;20048;-79
2021/06/21 00:09:50;;;;;;;26.62;20.15;;;18.70;76.20;;;;;;4439808;32;20496;-79
2021/06/21 00:12:17;;;;;;;29.60;22.75;;;18.60;76.30;;;;;;4454793;32;20029;-79
2021/06/21 00:14:46;;;;;;;28.33;21.85;;;18.60;76.40;;;;;;4441379;32;20115;-79
2021/06/21 00:17:15;;;;;;;24.50;19.55;;;18.60;76.50;;;;;;4453443;32;20068;-78
2021/06/21 00:19:43;;;;;;;31.65;21.30;;;18.60;76.70;;;;;;4439622;32;20348;-79
2021/06/21 00:22:11;;;;;;;28.27;22.02;;;18.50;76.70;;;;;;4439607;32;20030;-79
2021/06/21 00:24:38;;;;;;;29.05;20.30;;;18.50;76.70;;;;;;4441151;32;20413;-79
2021/06/21 00:27:05;;;;;;;34.58;23.35;;;18.40;76.60;;;;;;4439728;32;20425;-78
2021/06/21 00:29:32;;;;;;;29.98;22.85;;;18.40;76.80;;;;;;4439534;32;20480;-78
2021/06/21 00:31:59;;;;;;;29.58;21.77;;;18.40;76.90;;;;;;4453074;32;20128;-78
2021/06/21 00:34:26;;;;;;;29.00;21.52;;;18.40;76.80;;;;;;4439120;32;20079;-78
2021/06/21 00:36:53;;;;;;;30.67;21.95;;;18.40;76.70;;;;;;4439283;32;20503;-79
2021/06/21 00:39:20;;;;;;;28.90;21.80;;;18.40;76.70;;;;;;4439441;32;20101;-78
2021/06/21 00:41:47;;;;;;;28.50;21.48;;;18.40;76.80;;;;;;4439325;32;20076;-78
2021/06/21 00:44:14;;;;;;;31.08;22.83;;;18.40;76.80;;;;;;4440444;32;20135;-78
2021/06/21 00:46:41;;;;;;;26.42;21.08;;;18.40;76.80;;;;;;4439321;32;20048;-78
2021/06/21 00:49:08;;;;;;;29.50;22.75;;;18.40;76.90;;;;;;4440460;32;20418;-79
2021/06/21 00:51:35;;;;;;;32.75;22.95;;;18.30;76.90;;;;;;4441718;32;20064;-78
2021/06/21 00:54:03;;;;;;;32.75;23.20;;;18.30;77.00;;;;;;4437571;32;20408;-79
2021/06/21 00:56:30;;;;;;;27.10;19.73;;;18.30;77.00;;;;;;4437420;32;20072;-79
2021/06/21 00:59:02;;;;;;;33.03;22.95;;;18.30;77.00;;;;;;4424613;32;20076;-79
2021/06/21 01:01:29;;;;;;;30.90;23.83;;;18.30;77.10;;;;;;4423407;32;20061;-79
2021/06/21 01:03:59;;;;;;;33.35;24.30;;;18.20;77.10;;;;;;4423748;32;20030;-79
2021/06/21 01:06:27;;;;;;;34.55;24.05;;;18.30;77.10;;;;;;4424526;32;20072;-78
2021/06/21 01:08:55;;;;;;;32.83;23.40;;;18.20;77.20;;;;;;4425332;32;20111;-78
2021/06/21 01:11:31;;;;;;;31.75;22.85;;;18.20;77.30;;;;;;4423527;32;20102;-79
2021/06/21 01:14:16;;;;;;;34.35;21.58;;;18.30;77.50;;;;;;4430269;32;20120;-79
2021/06/21 01:16:56;;;;;;;30.12;22.77;;;18.20;77.50;;;;;;4439555;32;20061;-79
2021/06/21 01:20:02;;;;;;;31.05;22.13;;;18.30;77.60;;;;;;4438784;32;20481;-79
2021/06/21 01:23:06;;;;;;;33.20;21.98;;;18.20;77.70;;;;;;4438872;32;20117;-79
2021/06/21 01:25:59;;;;;;;33.75;22.02;;;18.20;77.80;;;;;;4438625;32;20120;-78
2021/06/21 01:28:56;;;;;;;34.05;23.20;;;18.20;77.90;;;;;;4438668;32;20148;-78
2021/06/21 01:31:52;;;;;;;28.73;22.30;;;18.20;77.90;;;;;;4452224;32;20025;-79
2021/06/21 01:34:25;;;;;;;28.05;20.08;;;18.20;78.00;;;;;;4430402;32;20038;-79
2021/06/21 01:36:54;;;;;;;28.40;21.87;;;18.20;78.00;;;;;;4453917;32;20030;-79
2021/06/21 01:39:22;;;;;;;29.87;21.75;;;18.30;78.10;;;;;;4453288;32;20046;-77
2021/06/21 01:41:52;;;;;;;26.30;19.95;;;18.30;78.10;;;;;;4438431;32;20108;-78
2021/06/21 01:44:23;;;;;;;30.08;21.12;;;18.30;78.20;;;;;;4438259;32;20379;-78
2021/06/21 01:46:52;;;;;;;27.62;19.90;;;18.30;78.20;;;;;;4437789;32;20061;-78
2021/06/21 01:49:28;;;;;;;29.73;20.98;;;18.30;78.30;;;;;;4438633;32;20386;-78
2021/06/21 01:51:58;;;;;;;29.98;20.20;;;18.30;78.30;;;;;;4438846;32;20033;-78
2021/06/21 01:54:29;;;;;;;31.27;20.50;;;18.20;78.40;;;;;;4422698;32;20069;-78
2021/06/21 01:56:58;;;;;;;25.30;18.27;;;18.20;78.50;;;;;;4422959;32;20026;-78
2021/06/21 01:59:28;;;;;;;27.02;18.17;;;18.20;78.50;;;;;;4422678;32;20391;-78
2021/06/21 02:01:57;;;;;;;24.40;18.83;;;18.20;78.60;;;;;;4436542;32;20111;-78
2021/06/21 02:04:27;;;;;;;23.77;18.40;;;18.10;79.00;;;;;;4437212;32;20030;-78
2021/06/21 02:06:54;;;;;;;26.45;18.30;;;18.10;78.90;;;;;;4422789;32;20104;-78
2021/06/21 02:09:24;;;;;;;25.25;17.73;;;18.10;79.00;;;;;;4422642;32;20089;-78
2021/06/21 02:11:53;;;;;;;29.87;19.30;;;18.00;79.20;;;;;;4436889;32;20037;-78
2021/06/21 02:14:22;;;;;;;25.27;19.98;;;18.00;79.20;;;;;;4431327;32;20124;-77
2021/06/21 02:16:52;;;;;;;26.05;18.73;;;18.00;79.30;;;;;;4438013;32;20500;-77
2021/06/21 02:19:23;;;;;;;26.05;19.37;;;17.90;79.40;;;;;;4451793;32;20053;-77
2021/06/21 02:21:50;;;;;;;22.87;16.83;;;18.00;79.50;;;;;;4438061;32;20112;-77
2021/06/21 02:24:19;;;;;;;23.42;17.12;;;17.90;79.60;;;;;;4451565;32;20093;-77
2021/06/21 02:26:47;;;;;;;24.42;17.25;;;17.90;79.70;;;;;;4451751;32;20054;-77
2021/06/21 02:29:21;;;;;;;21.15;17.02;;;17.90;79.70;;;;;;4439468;32;20113;-77
2021/06/21 02:31:51;;;;;;;24.90;16.15;;;17.90;79.60;;;;;;4451590;32;20029;-77
2021/06/21 02:34:18;;;;;;;25.88;18.60;;;17.90;79.70;;;;;;4452211;32;20033;-77
2021/06/21 02:36:46;;;;;;;31.40;17.02;;;17.90;79.90;;;;;;4438000;32;20530;-78
2021/06/21 02:39:13;;;;;;;27.87;17.73;;;17.90;79.80;;;;;;4438979;32;20113;-78
2021/06/21 02:41:40;;;;;;;24.90;16.05;;;17.90;79.70;;;;;;4438091;32;20458;-77
2021/06/21 02:44:08;;;;;;;26.45;17.60;;;17.90;79.70;;;;;;4437536;32;20105;-77
2021/06/21 02:46:35;;;;;;;23.42;16.65;;;17.90;79.80;;;;;;4451609;32;20516;-77
2021/06/21 02:49:03;;;;;;;30.20;16.98;;;17.90;79.90;;;;;;4437481;32;20417;-77
2021/06/21 02:51:30;;;;;;;22.98;16.83;;;17.80;80.00;;;;;;4441043;32;20504;-77
2021/06/21 02:54:23;;;;;;;23.30;17.85;;;17.80;80.10;;;;;;4436233;32;20405;-78
2021/06/21 02:57:02;;;;;;;24.55;17.10;;;17.70;80.10;;;;;;4403687;32;20047;-77
2021/06/21 02:59:35;;;;;;;22.87;16.12;;;17.70;80.10;;;;;;4405512;32;20043;-77
2021/06/21 03:02:05;;;;;;;22.37;15.57;;;17.70;80.20;;;;;;4404472;32;20073;-77
2021/06/21 03:04:37;;;;;;;21.05;15.27;;;17.70;80.10;;;;;;4404405;32;20032;-77
2021/06/21 03:07:06;;;;;;;22.08;15.00;;;17.60;80.20;;;;;;4404319;32;20034;-77
2021/06/21 03:09:34;;;;;;;20.73;15.13;;;17.70;80.30;;;;;;4405818;32;20494;-77
2021/06/21 03:12:02;;;;;;;23.55;16.02;;;17.60;80.30;;;;;;4403903;32;20115;-77
2021/06/21 03:14:30;;;;;;;21.92;15.80;;;17.60;80.40;;;;;;4415054;32;20133;-77
2021/06/21 03:16:59;;;;;;;21.85;15.27;;;17.70;80.40;;;;;;4419534;32;20114;-78
2021/06/21 03:19:28;;;;;;;25.40;16.80;;;17.60;80.40;;;;;;4420512;32;20050;-78
2021/06/21 03:21:55;;;;;;;23.65;15.27;;;17.60;80.50;;;;;;4420831;32;20023;-78
2021/06/21 03:24:24;;;;;;;24.08;17.48;;;17.70;80.50;;;;;;4420307;32;20097;-78
2021/06/21 03:26:52;;;;;;;19.75;15.75;;;17.60;80.60;;;;;;4419355;32;20059;-77
2021/06/21 03:29:21;;;;;;;24.83;18.37;;;17.60;80.60;;;;;;4419426;32;20114;-78
2021/06/21 03:31:51;;;;;;;24.23;17.23;;;17.70;80.70;;;;;;4420329;32;20109;-78
2021/06/21 03:34:21;;;;;;;18.55;15.77;;;17.60;80.60;;;;;;4419308;32;20105;-78
2021/06/21 03:36:49;;;;;;;26.17;17.40;;;17.60;80.50;;;;;;4419229;32;20051;-78
2021/06/21 03:39:16;;;;;;;20.85;16.40;;;17.70;80.50;;;;;;4419292;32;20136;-78
2021/06/21 03:41:44;;;;;;;18.67;14.20;;;17.70;80.50;;;;;;4420237;32;20106;-78
2021/06/21 03:44:11;;;;;;;26.02;16.25;;;17.60;80.40;;;;;;4422040;32;20489;-78
2021/06/21 03:46:38;;;;;;;30.10;17.95;;;17.70;80.50;;;;;;4419218;32;20054;-78
2021/06/21 03:49:05;;;;;;;26.92;18.08;;;17.70;80.60;;;;;;4431893;32;20035;-78
2021/06/21 03:51:32;;;;;;;23.35;17.05;;;17.70;80.60;;;;;;4409643;32;20452;-78
2021/06/21 03:53:59;;;;;;;24.23;17.52;;;17.70;80.60;;;;;;4405136;32;20113;-78
2021/06/21 03:56:26;;;;;;;26.62;18.48;;;17.60;80.60;;;;;;4432753;32;20112;-78
2021/06/21 03:58:53;;;;;;;34.75;19.48;;;17.70;80.70;;;;;;4421981;32;20414;-79
2021/06/21 04:01:20;;;;;;;27.23;19.65;;;17.60;80.60;;;;;;4436526;32;20056;-78
2021/06/21 04:03:48;;;;;;;29.23;18.77;;;17.60;80.70;;;;;;4421733;32;20386;-78
2021/06/21 04:06:15;;;;;;;24.30;17.12;;;17.60;80.70;;;;;;4421910;32;20125;-78
2021/06/21 04:08:42;;;;;;;30.37;20.27;;;17.70;80.70;;;;;;4422817;32;20520;-78
2021/06/21 04:11:09;;;;;;;23.02;17.85;;;17.70;80.80;;;;;;4438964;32;20153;-78
2021/06/21 04:13:36;;;;;;;23.83;17.73;;;17.70;80.80;;;;;;4428347;32;20148;-78
2021/06/21 04:16:04;;;;;;;26.30;19.85;;;17.70;80.80;;;;;;4439839;32;20034;-78
2021/06/21 04:18:31;;;;;;;28.17;20.88;;;17.70;80.80;;;;;;4439877;32;20042;-78
2021/06/21 04:20:58;;;;;;;23.85;20.15;;;17.70;80.90;;;;;;4453480;32;20397;-78
2021/06/21 04:23:25;;;;;;;29.10;19.80;;;17.70;80.90;;;;;;4439915;32;20113;-78
2021/06/21 04:25:52;;;;;;;29.00;21.52;;;17.70;81.00;;;;;;4440419;32;20117;-78
2021/06/21 04:28:19;;;;;;;26.70;17.77;;;17.70;81.00;;;;;;4439524;32;20089;-78
2021/06/21 04:30:48;;;;;;;26.92;19.52;;;17.70;81.00;;;;;;4439593;32;20448;-78
2021/06/21 04:33:15;;;;;;;27.48;20.20;;;17.70;81.10;;;;;;4439520;32;20405;-78
2021/06/21 04:35:42;;;;;;;32.45;23.38;;;17.70;81.20;;;;;;4455176;32;20049;-78
2021/06/21 04:38:09;;;;;;;30.50;21.17;;;17.70;81.20;;;;;;4439194;32;20439;-81
2021/06/21 04:40:37;;;;;;;33.25;22.00;;;17.80;81.20;;;;;;4439561;32;20050;-81
2021/06/21 04:43:04;;;;;;;31.37;21.65;;;17.80;81.20;;;;;;4441030;32;20053;-81
2021/06/21 04:45:32;;;;;;;27.45;21.90;;;17.80;81.30;;;;;;4453183;32;20124;-81
2021/06/21 04:48:00;;;;;;;29.20;23.08;;;17.80;81.30;;;;;;4439127;32;20049;-81
2021/06/21 04:50:27;;;;;;;36.90;24.50;;;17.80;81.30;;;;;;4435295;32;20514;-81
2021/06/21 04:52:54;;;;;;;30.25;21.77;;;17.80;81.30;;;;;;4437278;32;20378;-80
2021/06/21 04:55:23;;;;;;;32.75;24.48;;;17.80;81.40;;;;;;4423756;32;20079;-81
2021/06/21 04:57:51;;;;;;;34.40;25.02;;;17.90;81.40;;;;;;4423869;32;20034;-80
2021/06/21 05:00:21;;;;;;;26.40;21.73;;;17.90;81.40;;;;;;4423673;32;20054;-80
2021/06/21 05:02:49;;;;;;;33.67;24.90;;;17.90;81.40;;;;;;4423615;32;20113;-80
2021/06/21 05:05:17;;;;;;;34.95;24.02;;;17.80;81.40;;;;;;4423838;32;20106;-80
2021/06/21 05:07:50;;;;;;;31.42;24.27;;;17.90;81.40;;;;;;4423651;32;20044;-81
2021/06/21 05:10:20;;;;;;;36.90;27.83;;;17.90;81.50;;;;;;4424735;32;20057;-80
2021/06/21 05:12:47;;;;;;;38.08;27.17;;;17.90;81.60;;;;;;4424127;32;20136;-80
2021/06/21 05:15:15;;;;;;;32.92;25.85;;;17.90;81.60;;;;;;4438671;32;20037;-81
2021/06/21 05:17:43;;;;;;;40.10;27.90;;;17.90;81.60;;;;;;4438916;32;20030;-80
2021/06/21 05:20:11;;;;;;;35.22;26.92;;;17.90;81.60;;;;;;4438836;32;20052;-80
2021/06/21 05:22:38;;;;;;;40.03;30.00;;;17.90;81.60;;;;;;4452475;32;20101;-80
2021/06/21 05:25:06;;;;;;;40.55;31.23;;;17.90;81.70;;;;;;4438498;32;20112;-80
2021/06/21 05:27:33;;;;;;;41.58;29.77;;;17.90;81.70;;;;;;4438733;32;20443;-80
2021/06/21 05:30:00;;;;;;;37.22;28.75;;;17.90;81.70;;;;;;4438710;32;20105;-80
2021/06/21 05:32:28;;;;;;;37.33;29.25;;;17.90;81.70;;;;;;4438529;32;20096;-80
2021/06/21 05:34:55;;;;;;;43.28;32.95;;;17.90;81.80;;;;;;4438697;32;20027;-80
2021/06/21 05:37:22;;;;;;;46.50;32.15;;;17.90;81.90;;;;;;4452685;32;20105;-80
2021/06/21 05:39:49;;;;;;;49.83;33.08;;;17.90;81.90;;;;;;4439829;32;20033;-80
2021/06/21 05:42:17;;;;;;;44.90;31.55;;;17.90;82.00;;;;;;4452291;32;20101;-80
2021/06/21 05:44:45;;;;;;;50.50;36.33;;;17.90;82.00;;;;;;4440136;32;20045;-80
2021/06/21 05:47:14;;;;;;;47.78;35.28;;;18.00;82.10;;;;;;4452267;32;20121;-80
2021/06/21 05:49:42;;;;;;;47.08;35.70;;;18.00;82.10;;;;;;4453278;32;20033;-80
2021/06/21 05:52:09;;;;;;;44.70;35.33;;;18.00;82.10;;;;;;4423872;32;20060;-80
2021/06/21 05:54:36;;;;;;;49.72;35.65;;;18.00;82.10;;;;;;4436543;32;20050;-80
2021/06/21 05:57:04;;;;;;;55.67;39.10;;;18.00;82.20;;;;;;4438050;32;20106;-81
2021/06/21 05:59:32;;;;;;;52.25;38.90;;;18.00;82.20;;;;;;4424513;32;20098;-80
2021/06/21 06:01:59;;;;;;;46.95;36.45;;;18.00;82.20;;;;;;4422763;32;20397;-80
2021/06/21 06:04:26;;;;;;;53.28;37.45;;;18.00;82.30;;;;;;4423244;32;20052;-81
2021/06/21 06:06:53;;;;;;;48.67;38.33;;;18.00;82.40;;;;;;4423287;32;20124;-80
2021/06/21 06:09:20;;;;;;;55.90;39.47;;;18.00;82.40;;;;;;4422712;32;20089;-78
2021/06/21 06:11:48;;;;;;;49.10;37.38;;;18.00;82.50;;;;;;4422948;32;20528;-78
2021/06/21 06:14:16;;;;;;;51.22;38.17;;;18.00;82.50;;;;;;4430795;32;20065;-78
2021/06/21 06:16:43;;;;;;;52.78;38.13;;;18.00;82.60;;;;;;4452717;32;20105;-78
2021/06/21 06:19:10;;;;;;;48.08;37.38;;;18.10;82.60;;;;;;4438020;32;20110;-78
2021/06/21 06:21:38;;;;;;;48.08;36.40;;;18.00;82.70;;;;;;4452953;32;20030;-78
2021/06/21 06:24:06;;;;;;;48.63;36.75;;;18.00;82.70;;;;;;4439374;32;20204;-78
2021/06/21 06:26:33;;;;;;;46.65;36.55;;;18.00;82.70;;;;;;4437881;32;20034;-78
2021/06/21 06:29:00;;;;;;;44.42;34.88;;;18.10;82.70;;;;;;4438204;32;20071;-78
2021/06/21 06:31:28;;;;;;;43.38;31.67;;;18.10;82.70;;;;;;4451975;32;20141;-79
2021/06/21 06:33:56;;;;;;;37.75;30.83;;;18.10;82.80;;;;;;4437547;32;20034;-79
2021/06/21 06:36:23;;;;;;;40.08;32.00;;;18.10;82.80;;;;;;4438365;32;20069;-79
2021/06/21 06:38:50;;;;;;;39.80;30.42;;;18.10;82.70;;;;;;4434036;32;20121;-78
2021/06/21 06:41:18;;;;;;;38.92;28.60;;;18.20;82.70;;;;;;4447937;32;20084;-78
2021/06/21 06:43:45;;;;;;;33.97;27.87;;;18.20;82.70;;;;;;4449927;32;20118;-78
2021/06/21 06:46:12;;;;;;;37.40;29.77;;;18.20;82.70;;;;;;4436592;32;20117;-78
2021/06/21 06:48:39;;;;;;;35.03;29.02;;;18.10;82.70;;;;;;4449752;32;20026;-78
2021/06/21 06:51:06;;;;;;;34.67;27.27;;;18.20;82.70;;;;;;4450479;32;20067;-78
2021/06/21 06:53:47;;;;;;;37.45;29.42;;;18.20;82.60;;;;;;4437830;32;20112;-79
2021/06/21 06:59:00;;;;;;;35.03;27.10;;;18.20;82.60;;;;;;4435742;32;20073;-78
2021/06/21 07:01:28;;;;;;;32.22;26.12;;;18.20;82.60;;;;;;4421212;32;20164;-78
2021/06/21 07:03:56;;;;;;;31.05;25.73;;;18.20;82.60;;;;;;4434602;32;20451;-78
2021/06/21 07:06:23;;;;;;;30.42;26.08;;;18.20;82.60;;;;;;4421384;32;20053;-78
2021/06/21 07:08:50;;;;;;;28.25;24.17;;;18.20;82.70;;;;;;4435168;32;20050;-77
2021/06/21 07:11:17;;;;;;;28.05;24.48;;;18.20;82.70;;;;;;4420998;32;20034;-77
2021/06/21 07:13:44;;;;;;;26.58;23.12;;;18.30;82.70;;;;;;4432690;32;20492;-78
2021/06/21 07:16:11;;;;;;;27.70;22.87;;;18.30;82.70;;;;;;4450233;32;20140;-78
2021/06/21 07:18:38;;;;;;;28.67;23.90;;;18.30;82.60;;;;;;4436302;32;20025;-78
2021/06/21 07:21:09;;;;;;;27.73;22.98;;;18.30;82.60;;;;;;4436769;32;20083;-77
2021/06/21 07:23:36;;;;;;;34.13;24.92;;;18.30;82.60;;;;;;4450132;32;20034;-78
2021/06/21 07:26:06;;;;;;;28.55;23.75;;;18.30;82.60;;;;;;4437803;32;20053;-78
2021/06/21 07:28:34;;;;;;;26.87;23.23;;;18.30;82.60;;;;;;4437328;32;20050;-78
2021/06/21 07:31:02;;;;;;;27.15;23.38;;;18.40;82.60;;;;;;4436439;32;20109;-78
2021/06/21 07:33:31;;;;;;;29.30;24.00;;;18.30;82.50;;;;;;4449677;32;20038;-77
2021/06/21 07:35:59;;;;;;;29.05;24.40;;;18.30;82.50;;;;;;4436630;32;20030;-77
2021/06/21 07:38:26;;;;;;;28.67;24.08;;;18.30;82.50;;;;;;4436407;32;20034;-77
2021/06/21 07:40:53;;;;;;;28.23;23.12;;;18.30;82.60;;;;;;4435872;32;20059;-78
2021/06/21 07:43:20;;;;;;;32.88;24.27;;;18.30;82.60;;;;;;4450698;32;20050;-78
2021/06/21 07:45:47;;;;;;;31.05;27.13;;;18.30;82.60;;;;;;4453145;32;20067;-78
2021/06/21 07:48:15;;;;;;;28.77;23.40;;;18.30;82.50;;;;;;4452677;32;20038;-78
2021/06/21 07:50:45;;;;;;;36.33;26.00;;;18.30;82.60;;;;;;4452830;32;20037;-79
2021/06/21 07:53:12;;;;;;;34.70;28.23;;;18.30;82.70;;;;;;4438738;32;20118;-78
2021/06/21 07:55:41;;;;;;;35.80;27.75;;;18.40;82.80;;;;;;4435787;32;20083;-78
2021/06/21 07:58:09;;;;;;;36.20;26.85;;;18.40;82.80;;;;;;4436711;32;20069;-78
2021/06/21 08:00:40;;;;;;;32.95;28.15;;;18.40;82.90;;;;;;4437301;32;20038;-78
2021/06/21 08:03:10;;;;;;;35.33;27.48;;;18.40;82.90;;;;;;4436170;32;20564;-78
2021/06/21 08:05:40;;;;;;;34.00;27.48;;;18.40;82.90;;;;;;4438068;32;20090;-77
2021/06/21 08:08:07;;;;;;;37.42;29.87;;;18.40;82.90;;;;;;4436353;32;20102;-78
2021/06/21 08:10:34;;;;;;;37.95;30.00;;;18.40;82.90;;;;;;4436149;32;20109;-80
2021/06/21 08:13:02;;;;;;;38.78;31.02;;;18.40;83.00;;;;;;4437410;32;20069;-80
2021/06/21 08:15:29;;;;;;;36.83;30.77;;;18.40;83.00;;;;;;4437272;32;20357;-78
2021/06/21 08:17:57;;;;;;;34.15;28.65;;;18.40;83.00;;;;;;4435510;32;20515;-77
2021/06/21 08:20:24;;;;;;;33.17;27.70;;;18.40;83.00;;;;;;4435918;32;20038;-78
2021/06/21 08:22:51;;;;;;;37.88;27.13;;;18.40;83.00;;;;;;4434702;32;20035;-77
2021/06/21 08:25:19;;;;;;;36.58;26.20;;;18.40;83.10;;;;;;4435791;32;20462;-77
2021/06/21 08:27:46;;;;;;;33.10;25.62;;;18.40;83.10;;;;;;4435753;32;20030;-78
2021/06/21 08:30:14;;;;;;;30.92;23.50;;;18.40;83.10;;;;;;4435808;32;20058;-78
2021/06/21 08:32:41;;;;;;;28.80;24.37;;;18.40;83.10;;;;;;4435697;32;20102;-77
2021/06/21 08:35:10;;;;;;;25.25;22.05;;;18.40;83.10;;;;;;4435015;32;20097;-77
2021/06/21 08:37:38;;;;;;;28.05;22.90;;;18.40;83.10;;;;;;4437047;32;20061;-78
2021/06/21 08:40:07;;;;;;;27.42;23.55;;;18.40;83.10;;;;;;4435700;32;20109;-78
2021/06/21 08:42:36;;;;;;;26.70;22.27;;;18.40;83.10;;;;;;4436274;32;20115;-78
2021/06/21 08:45:07;;;;;;;24.45;20.95;;;18.40;83.10;;;;;;4435597;32;20062;-78
2021/06/21 08:47:36;;;;;;;23.45;19.73;;;18.40;83.10;;;;;;4435443;32;20098;-78
2021/06/21 08:50:07;;;;;;;25.50;19.67;;;18.40;83.10;;;;;;4435217;32;20470;-77
2021/06/21 08:52:34;;;;;;;19.67;16.83;;;18.40;83.10;;;;;;4435724;32;20109;-78
2021/06/21 08:55:06;;;;;;;19.85;15.55;;;18.40;83.10;;;;;;4434473;32;20113;-77
2021/06/21 08:57:35;;;;;;;19.67;15.35;;;18.40;83.10;;;;;;4436899;32;20126;-78
2021/06/21 09:00:08;;;;;;;17.73;14.85;;;18.40;83.00;;;;;;4435495;32;20076;-78
2021/06/21 09:02:36;;;;;;;19.55;15.27;;;18.40;83.10;;;;;;4435977;32;20137;-78
2021/06/21 09:05:09;;;;;;;15.75;12.80;;;18.40;83.10;;;;;;4435325;32;20046;-77
2021/06/21 09:07:36;;;;;;;16.65;13.25;;;18.40;83.10;;;;;;4436697;32;20058;-78
2021/06/21 09:10:09;;;;;;;15.38;12.52;;;18.40;83.10;;;;;;4435173;32;20113;-78
2021/06/21 09:12:36;;;;;;;15.25;12.68;;;18.40;83.10;;;;;;4435245;32;20136;-78
2021/06/21 09:15:10;;;;;;;15.20;11.48;;;18.40;83.10;;;;;;4434786;32;20121;-78
2021/06/21 09:17:38;;;;;;;15.48;12.55;;;18.40;83.20;;;;;;4434964;32;20132;-77
2021/06/21 09:20:10;;;;;;;14.82;12.18;;;18.40;83.20;;;;;;4435199;32;20072;-78
2021/06/21 09:22:50;;;;;;;15.02;12.93;;;18.40;83.20;;;;;;4435384;32;20046;-78
2021/06/21 09:25:20;;;;;;;14.07;11.98;;;18.40;83.20;;;;;;4427002;32;20127;-77
2021/06/21 09:28:05;;;;;;;15.25;11.82;;;18.40;83.20;;;;;;4419942;32;20057;-78
2021/06/21 09:30:47;;;;;;;18.98;12.15;;;18.50;83.30;;;;;;4419672;32;20081;-76
2021/06/21 09:33:29;;;;;;;14.55;11.80;;;18.50;83.30;;;;;;4420378;32;20113;-77
2021/06/21 09:35:58;;;;;;;12.15;10.13;;;18.50;83.30;;;;;;4435103;32;20069;-77
2021/06/21 09:38:25;;;;;;;12.60;10.05;;;18.50;83.30;;;;;;4435407;32;20060;-77
2021/06/21 09:40:55;;;;;;;14.77;9.15;;;18.60;83.20;;;;;;4435735;32;20113;-77
2021/06/21 09:43:36;;;;;;;10.98;9.07;;;18.60;83.20;;;;;;4435693;32;20068;-77
2021/06/21 09:46:08;;;;;;;11.93;9.80;;;18.60;83.20;;;;;;4434914;32;20051;-77
2021/06/21 09:48:35;;;;;;;10.68;8.55;;;18.60;83.20;;;;;;4434371;32;20046;-77
2021/06/21 09:51:39;;;;;;;10.52;8.65;;;18.60;83.20;;;;;;4435692;32;20042;-77
2021/06/21 09:54:13;;;;;;;15.10;10.18;;;18.60;83.20;;;;;;4421879;32;20034;-76
2021/06/21 09:56:49;;;;;;;10.85;9.55;;;18.60;83.20;;;;;;4434796;32;20056;-77
2021/06/21 09:59:31;;;;;;;11.73;9.55;;;18.60;83.10;;;;;;4435980;32;20053;-78
2021/06/21 10:02:22;;;;;;;11.45;9.60;;;18.60;83.10;;;;;;4434286;32;20076;-78
2021/06/21 10:04:49;;;;;;;10.90;9.20;;;18.60;83.10;;;;;;4434115;32;20125;-78
2021/06/21 10:07:35;;;;;;;10.90;8.70;;;18.60;83.10;;;;;;4435061;32;20057;-78
2021/06/21 10:10:08;;;;;;;10.80;8.95;;;18.60;83.10;;;;;;4434324;32;20193;-84
2021/06/21 10:12:38;;;;;;;12.57;10.23;;;18.60;83.10;;;;;;4429551;32;20034;-85
2021/06/21 10:15:07;;;;;;;13.50;11.00;;;18.60;83.00;;;;;;4432565;32;20077;-82
2021/06/21 10:17:35;;;;;;;13.73;10.80;;;18.60;83.00;;;;;;4434001;32;20068;-82
2021/06/21 10:20:04;;;;;;;14.65;10.00;;;18.60;83.00;;;;;;4434260;32;20132;-81
2021/06/21 10:22:31;;;;;;;11.05;8.80;;;18.70;83.00;;;;;;4434200;32;20092;-82
2021/06/21 10:24:58;;;;;;;13.23;9.57;;;18.70;83.00;;;;;;4426822;32;20042;-82
2021/06/21 10:27:30;;;;;;;12.15;9.02;;;18.70;83.00;;;;;;4420522;32;20084;-84
2021/06/21 10:29:58;;;;;;;10.48;8.10;;;18.70;83.00;;;;;;4420196;32;20056;-85
2021/06/21 10:32:27;;;;;;;11.60;8.20;;;18.70;83.00;;;;;;4418423;32;20430;-87
2021/06/21 10:34:55;;;;;;;12.02;9.85;;;18.70;83.00;;;;;;4418544;32;20056;-79
2021/06/21 10:37:25;;;;;;;16.40;10.50;;;18.70;83.00;;;;;;4420302;32;20501;-78
2021/06/21 10:40:04;;;;;;;13.95;10.95;;;18.70;83.00;;;;;;4418644;32;20076;-79
2021/06/21 10:42:36;;;;;;;11.60;9.43;;;18.70;83.00;;;;;;4419417;32;20088;-78
2021/06/21 10:45:07;;;;;;;12.07;9.88;;;18.70;82.90;;;;;;4419524;32;20035;-78
2021/06/21 10:47:46;;;;;;;11.65;9.38;;;18.70;82.80;;;;;;4418159;32;20103;-78
2021/06/21 10:50:16;;;;;;;11.40;8.95;;;18.60;82.70;;;;;;4421418;32;20168;-78
2021/06/21 10:52:56;;;;;;;11.00;8.88;;;18.60;82.60;;;;;;4435034;32;20046;-78
2021/06/21 10:55:27;;;;;;;12.88;9.10;;;18.60;82.60;;;;;;4435061;32;20113;-78
2021/06/21 10:57:59;;;;;;;10.63;8.25;;;18.60;82.50;;;;;;4435023;32;20117;-80
2021/06/21 11:00:44;;;;;;;10.05;7.35;;;18.60;82.60;;;;;;4420941;32;20124;-81
2021/06/21 11:03:26;;;;;;;11.12;7.15;;;18.60;82.50;;;;;;4435033;32;20077;-81
2021/06/21 11:05:55;;;;;;;11.50;7.25;;;18.50;82.50;;;;;;4421301;32;20068;-81
2021/06/21 11:08:23;;;;;;;10.43;7.55;;;18.50;82.60;;;;;;4434694;32;20410;-81
2021/06/21 11:10:54;;;;;;;10.02;7.00;;;18.50;82.60;;;;;;4422862;32;20113;-77
2021/06/21 11:16:22;;;;;;;11.98;9.35;;;18.50;82.80;;;;;;4436118;32;20109;-77
2021/06/21 11:19:22;;;;;;;12.37;8.75;;;18.50;82.80;;;;;;4422915;32;20100;-78
2021/06/21 11:21:56;;;;;;;11.77;8.63;;;18.50;82.80;;;;;;4438559;32;20042;-78
2021/06/21 11:24:35;;;;;;;;;;;18.50;82.70;;;;;;4424080;32;20062;-78
2021/06/21 11:27:08;;;;;;;11.95;9.02;;;18.40;82.60;;;;;;4437905;32;20008;-78
2021/06/21 11:29:41;;;;;;;11.85;8.88;;;18.40;82.70;;;;;;4424770;32;20109;-77
2021/06/21 11:32:10;;;;;;;9.10;6.90;;;18.40;82.70;;;;;;4424872;32;20148;-78
2021/06/21 11:34:44;;;;;;;9.90;6.25;;;18.40;82.80;;;;;;4433334;32;20057;-78
2021/06/21 11:37:31;;;;;;;10.27;6.07;;;18.40;82.80;;;;;;4414038;32;20149;-77
2021/06/21 11:40:21;;;;;;;8.23;6.25;;;18.40;82.70;;;;;;4405904;32;20396;-78
2021/06/21 11:42:58;;;;;;;8.95;6.22;;;18.40;82.70;;;;;;4405534;32;20042;-78
2021/06/21 11:45:49;;;;;;;8.30;5.90;;;18.40;82.70;;;;;;4406418;32;20108;-78
2021/06/21 11:48:36;;;;;;;8.57;6.40;;;18.40;82.80;;;;;;4406907;32;20065;-78
2021/06/21 11:51:13;;;;;;;7.50;6.10;;;18.40;82.80;;;;;;4408573;32;20385;-78
2021/06/21 11:53:48;;;;;;;8.18;5.90;;;18.40;82.80;;;;;;4421792;32;20085;-78
2021/06/21 11:56:23;;;;;;;7.32;5.32;;;18.40;82.90;;;;;;4397857;32;20039;-78
2021/06/21 11:58:51;;;;;;;8.45;5.68;;;18.40;82.90;;;;;;4393098;32;20046;-78
2021/06/21 12:01:23;;;;;;;8.90;5.65;;;18.50;83.00;;;;;;4393002;32;20436;-80
2021/06/21 12:03:59;;;;;;;8.40;6.20;;;18.40;83.20;;;;;;4393310;32;20089;-78
2021/06/21 12:06:27;;;;;;;8.23;6.28;;;18.50;83.60;;;;;;4408459;32;20141;-79
2021/06/21 12:08:55;;;;;;;11.15;6.72;;;18.60;83.70;;;;;;4392476;32;20072;-79
2021/06/21 12:11:28;;;;;;;8.95;7.12;;;18.70;83.80;;;;;;4393002;32;20373;-79
2021/06/21 12:13:59;;;;;;;8.55;5.57;;;18.70;83.80;;;;;;4393827;32;20109;-79
2021/06/21 12:16:28;;;;;;;8.00;6.07;;;18.80;83.90;;;;;;4406572;32;20058;-79
2021/06/21 12:18:57;;;;;;;7.75;5.32;;;18.90;83.70;;;;;;4393001;32;20073;-80
2021/06/21 12:21:39;;;;;;;9.52;4.82;;;19.00;84.00;;;;;;4406693;32;20061;-79
2021/06/21 12:24:25;;;;;;;8.30;5.07;;;19.10;84.10;;;;;;4392909;32;20117;-80
2021/06/21 12:27:07;;;;;;;6.45;4.95;;;19.20;83.90;;;;;;4393043;32;20073;-80
2021/06/21 12:29:37;;;;;;;5.93;4.55;;;19.40;83.60;;;;;;4391896;32;20122;-79
2021/06/21 12:32:12;;;;;;;7.05;5.00;;;19.40;82.90;;;;;;4393116;32;20069;-79
2021/06/21 12:34:53;;;;;;;7.18;5.93;;;19.40;82.40;;;;;;4401732;32;20079;-79
2021/06/21 12:37:26;;;;;;;7.43;6.00;;;19.50;82.00;;;;;;4407014;32;20069;-79
2021/06/21 12:39:57;;;;;;;7.90;6.85;;;19.50;81.70;;;;;;4407894;32;20129;-80
2021/06/21 12:42:27;;;;;;;8.30;7.37;;;19.50;81.80;;;;;;4407792;32;20110;-79
2021/06/21 12:44:54;;;;;;;11.05;8.80;;;19.50;81.70;;;;;;4407888;32;20050;-79
2021/06/21 12:47:27;;;;;;;12.37;9.63;;;19.50;81.50;;;;;;4409671;32;20070;-80
2021/06/21 12:50:02;;;;;;;13.27;11.75;;;19.60;81.60;;;;;;4407444;32;20076;-80
2021/06/21 12:52:29;;;;;;;13.30;11.90;;;19.60;81.30;;;;;;4407254;32;20105;-78
2021/06/21 12:55:05;;;;;;;12.95;10.60;;;19.60;81.40;;;;;;4409005;32;20035;-79